Terminal Aerodrome Forecast
Issued by NWS Paducah, KY

Home | Current Version | Previous Version | Text Only | Print | Product List | Glossary On
Versions: 1 2 3 4 5 6 7 8 9 10 11 12 13 14 15 16 17 18 19 20
000
FTUS43 KPAH 292339
TAFEVV
TAF
KEVV 292339Z 3000/3024 06003KT P6SM BKN100
     FM300300 07004KT 6SM -SHRA BR OVC080
     FM300500 07008KT P6SM VCSH SCT035 OVC060
     FM301200 09011KT 5SM -SHRA BR BKN015 OVC040
      TEMPO 3013/3017 2SM TSRA BR BKN009CB
     FM301900 19010KT P6SM SCT025 BKN120=

USA.gov is the U.S. government's official web portal to all federal, state and local government web resources and services.